Terminal Aerodrome Forecast
Issued by NWS

Home | Current Version | Previous Version | Text Only | Print | Product List | Glossary On
Versions: 1 2 3 4 5 6 7 8 9 10 11 12 13 14
473
FTUS41 KPBZ 251948 AAA
TAFMGW
TAF AMD
KMGW 251948Z 2520/2618 08010KT P6SM BKN025
     FM260200 07004KT P6SM SCT060
     FM260800 00000KT 3SM BR SCT050
     FM261300 20004KT P6SM SCT080=

USA.gov is the U.S. government's official web portal to all federal, state and local government web resources and services.